sensor_id;sensor_type;location;lat;lon;timestamp;temperature;humidity
71173;DHT22;58875;51.996;4.504;2023-11-19T00:01:55;14.42;85.89
71173;DHT22;58875;51.996;4.504;2023-11-19T00:04:21;14.39;85.93
71173;DHT22;58875;51.996;4.504;2023-11-19T00:06:48;14.38;86.01
71173;DHT22;58875;51.996;4.504;2023-11-19T00:09:13;14.34;86.10
71173;DHT22;58875;51.996;4.504;2023-11-19T00:11:42;14.35;86.05
71173;DHT22;58875;51.996;4.504;2023-11-19T00:14:07;14.34;86.12
71173;DHT22;58875;51.996;4.504;2023-11-19T00:16:34;14.31;86.08
71173;DHT22;58875;51.996;4.504;2023-11-19T00:19:00;14.30;86.04
71173;DHT22;58875;51.996;4.504;2023-11-19T00:21:25;14.28;85.95
71173;DHT22;58875;51.996;4.504;2023-11-19T00:23:54;14.27;85.98
71173;DHT22;58875;51.996;4.504;2023-11-19T00:26:20;14.28;85.85
71173;DHT22;58875;51.996;4.504;2023-11-19T00:28:45;14.28;85.67
71173;DHT22;58875;51.996;4.504;2023-11-19T00:31:13;14.22;85.83
71173;DHT22;58875;51.996;4.504;2023-11-19T00:33:39;14.22;85.83
71173;DHT22;58875;51.996;4.504;2023-11-19T00:36:09;14.17;85.78
71173;DHT22;58875;51.996;4.504;2023-11-19T00:38:34;14.17;85.83
71173;DHT22;58875;51.996;4.504;2023-11-19T00:41:00;14.13;86.00
71173;DHT22;58875;51.996;4.504;2023-11-19T00:43:25;14.11;85.94
71173;DHT22;58875;51.996;4.504;2023-11-19T00:45:52;14.11;85.87
71173;DHT22;58875;51.996;4.504;2023-11-19T00:48:18;14.10;85.92
71173;DHT22;58875;51.996;4.504;2023-11-19T00:50:43;14.07;85.93
71173;DHT22;58875;51.996;4.504;2023-11-19T00:53:10;14.06;85.90
71173;DHT22;58875;51.996;4.504;2023-11-19T00:55:36;14.04;85.80
71173;DHT22;58875;51.996;4.504;2023-11-19T00:58:01;14.07;85.74
71173;DHT22;58875;51.996;4.504;2023-11-19T01:00:28;14.03;85.59
71173;DHT22;58875;51.996;4.504;2023-11-19T01:02:54;14.08;85.36
71173;DHT22;58875;51.996;4.504;2023-11-19T01:05:20;14.03;85.25
71173;DHT22;58875;51.996;4.504;2023-11-19T01:07:49;14.00;85.21
71173;DHT22;58875;51.996;4.504;2023-11-19T01:10:15;14.01;84.99
71173;DHT22;58875;51.996;4.504;2023-11-19T01:12:44;14.00;84.98
71173;DHT22;58875;51.996;4.504;2023-11-19T01:15:10;14.00;84.70
71173;DHT22;58875;51.996;4.504;2023-11-19T01:17:38;14.01;84.67
71173;DHT22;58875;51.996;4.504;2023-11-19T01:20:04;13.96;84.61
71173;DHT22;58875;51.996;4.504;2023-11-19T01:22:32;13.91;84.66
71173;DHT22;58875;51.996;4.504;2023-11-19T01:24:58;13.90;84.54
71173;DHT22;58875;51.996;4.504;2023-11-19T01:27:24;13.91;84.46
71173;DHT22;58875;51.996;4.504;2023-11-19T01:29:50;13.87;84.22
71173;DHT22;58875;51.996;4.504;2023-11-19T01:32:15;13.81;84.16
71173;DHT22;58875;51.996;4.504;2023-11-19T01:34:41;13.80;83.89
71173;DHT22;58875;51.996;4.504;2023-11-19T01:37:07;13.81;83.78
71173;DHT22;58875;51.996;4.504;2023-11-19T01:39:35;13.76;83.73
71173;DHT22;58875;51.996;4.504;2023-11-19T01:42:01;13.70;83.60
71173;DHT22;58875;51.996;4.504;2023-11-19T01:44:26;13.77;83.33
71173;DHT22;58875;51.996;4.504;2023-11-19T01:46:52;13.74;83.25
71173;DHT22;58875;51.996;4.504;2023-11-19T01:49:19;13.76;83.11
71173;DHT22;58875;51.996;4.504;2023-11-19T01:51:47;13.77;83.03
71173;DHT22;58875;51.996;4.504;2023-11-19T01:54:14;13.80;82.82
71173;DHT22;58875;51.996;4.504;2023-11-19T01:56:41;13.69;82.94
71173;DHT22;58875;51.996;4.504;2023-11-19T01:59:09;13.66;83.05
71173;DHT22;58875;51.996;4.504;2023-11-19T02:01:36;13.60;83.04
71173;DHT22;58875;51.996;4.504;2023-11-19T02:04:06;13.58;82.93
71173;DHT22;58875;51.996;4.504;2023-11-19T02:06:34;13.59;83.08
71173;DHT22;58875;51.996;4.504;2023-11-19T02:09:02;13.56;83.19
71173;DHT22;58875;51.996;4.504;2023-11-19T02:11:34;13.52;83.16
71173;DHT22;58875;51.996;4.504;2023-11-19T02:14:00;13.53;83.27
71173;DHT22;58875;51.996;4.504;2023-11-19T02:16:26;13.49;83.19
71173;DHT22;58875;51.996;4.504;2023-11-19T02:18:51;13.49;83.21
71173;DHT22;58875;51.996;4.504;2023-11-19T02:21:17;13.49;83.27
71173;DHT22;58875;51.996;4.504;2023-11-19T02:23:43;13.40;83.23
71173;DHT22;58875;51.996;4.504;2023-11-19T02:26:31;13.36;83.33
71173;DHT22;58875;51.996;4.504;2023-11-19T02:29:00;13.32;83.53
71173;DHT22;58875;51.996;4.504;2023-11-19T02:31:25;13.36;83.50
71173;DHT22;58875;51.996;4.504;2023-11-19T02:33:52;13.32;83.52
71173;DHT22;58875;51.996;4.504;2023-11-19T02:36:18;13.28;83.44
71173;DHT22;58875;51.996;4.504;2023-11-19T02:38:43;13.23;83.61
71173;DHT22;58875;51.996;4.504;2023-11-19T02:41:09;13.25;83.66
71173;DHT22;58875;51.996;4.504;2023-11-19T02:43:37;13.19;83.49
71173;DHT22;58875;51.996;4.504;2023-11-19T02:46:03;13.20;83.34
71173;DHT22;58875;51.996;4.504;2023-11-19T02:48:35;13.16;83.34
71173;DHT22;58875;51.996;4.504;2023-11-19T02:51:04;13.15;83.47
71173;DHT22;58875;51.996;4.504;2023-11-19T02:53:32;13.12;83.42
71173;DHT22;58875;51.996;4.504;2023-11-19T02:55:58;13.18;83.34
71173;DHT22;58875;51.996;4.504;2023-11-19T02:58:31;13.15;83.16
71173;DHT22;58875;51.996;4.504;2023-11-19T03:00:57;13.11;83.29
71173;DHT22;58875;51.996;4.504;2023-11-19T03:03:35;13.11;83.13
71173;DHT22;58875;51.996;4.504;2023-11-19T03:06:06;13.08;83.04
71173;DHT22;58875;51.996;4.504;2023-11-19T03:08:32;13.11;82.94
71173;DHT22;58875;51.996;4.504;2023-11-19T03:10:58;13.11;82.80
71173;DHT22;58875;51.996;4.504;2023-11-19T03:13:24;13.05;82.69
71173;DHT22;58875;51.996;4.504;2023-11-19T03:15:49;13.07;82.67
71173;DHT22;58875;51.996;4.504;2023-11-19T03:18:15;13.01;82.56
71173;DHT22;58875;51.996;4.504;2023-11-19T03:20:41;13.04;82.53
71173;DHT22;58875;51.996;4.504;2023-11-19T03:23:06;13.05;82.17
71173;DHT22;58875;51.996;4.504;2023-11-19T03:25:32;13.05;82.40
71173;DHT22;58875;51.996;4.504;2023-11-19T03:28:02;12.99;82.40
71173;DHT22;58875;51.996;4.504;2023-11-19T03:30:29;12.98;82.51
71173;DHT22;58875;51.996;4.504;2023-11-19T03:32:56;13.04;82.36
71173;DHT22;58875;51.996;4.504;2023-11-19T03:35:22;12.97;82.49
71173;DHT22;58875;51.996;4.504;2023-11-19T03:37:48;12.97;82.55
71173;DHT22;58875;51.996;4.504;2023-11-19T03:40:13;12.97;82.79
71173;DHT22;58875;51.996;4.504;2023-11-19T03:42:40;12.95;82.60
71173;DHT22;58875;51.996;4.504;2023-11-19T03:45:06;12.98;82.66
71173;DHT22;58875;51.996;4.504;2023-11-19T03:47:34;12.98;82.60
71173;DHT22;58875;51.996;4.504;2023-11-19T03:50:01;12.97;82.63
71173;DHT22;58875;51.996;4.504;2023-11-19T03:52:27;12.91;82.77
71173;DHT22;58875;51.996;4.504;2023-11-19T03:54:52;12.84;82.69
71173;DHT22;58875;51.996;4.504;2023-11-19T03:57:18;12.88;82.66
71173;DHT22;58875;51.996;4.504;2023-11-19T03:59:44;12.88;82.43
71173;DHT22;58875;51.996;4.504;2023-11-19T04:02:10;12.89;82.20
71173;DHT22;58875;51.996;4.504;2023-11-19T04:04:35;12.87;82.16
71173;DHT22;58875;51.996;4.504;2023-11-19T04:07:01;12.92;81.93
71173;DHT22;58875;51.996;4.504;2023-11-19T04:09:29;12.87;81.81
71173;DHT22;58875;51.996;4.504;2023-11-19T04:11:58;12.84;81.64
71173;DHT22;58875;51.996;4.504;2023-11-19T04:14:24;12.87;81.31
71173;DHT22;58875;51.996;4.504;2023-11-19T04:16:51;12.88;80.98
71173;DHT22;58875;51.996;4.504;2023-11-19T04:19:18;12.89;80.65
71173;DHT22;58875;51.996;4.504;2023-11-19T04:21:44;12.89;80.50
71173;DHT22;58875;51.996;4.504;2023-11-19T04:24:10;12.92;80.14
71173;DHT22;58875;51.996;4.504;2023-11-19T04:26:43;12.95;79.98
71173;DHT22;58875;51.996;4.504;2023-11-19T04:29:12;12.91;80.24
71173;DHT22;58875;51.996;4.504;2023-11-19T04:31:38;12.92;80.18
71173;DHT22;58875;51.996;4.504;2023-11-19T04:34:04;12.91;80.13
71173;DHT22;58875;51.996;4.504;2023-11-19T04:36:33;12.92;79.94
71173;DHT22;58875;51.996;4.504;2023-11-19T04:39:00;12.89;79.71
71173;DHT22;58875;51.996;4.504;2023-11-19T04:41:26;12.92;79.62
71173;DHT22;58875;51.996;4.504;2023-11-19T04:43:54;12.94;79.43
71173;DHT22;58875;51.996;4.504;2023-11-19T04:46:20;12.88;79.62
71173;DHT22;58875;51.996;4.504;2023-11-19T04:48:46;12.89;79.52
71173;DHT22;58875;51.996;4.504;2023-11-19T04:51:11;12.89;79.51
71173;DHT22;58875;51.996;4.504;2023-11-19T04:53:37;12.88;79.64
71173;DHT22;58875;51.996;4.504;2023-11-19T04:56:09;12.85;79.85
71173;DHT22;58875;51.996;4.504;2023-11-19T04:58:35;12.87;79.79
71173;DHT22;58875;51.996;4.504;2023-11-19T05:01:03;12.87;79.84
71173;DHT22;58875;51.996;4.504;2023-11-19T05:03:29;12.83;80.03
71173;DHT22;58875;51.996;4.504;2023-11-19T05:05:55;12.83;80.12
71173;DHT22;58875;51.996;4.504;2023-11-19T05:08:20;12.78;80.42
71173;DHT22;58875;51.996;4.504;2023-11-19T05:10:46;12.78;80.32
71173;DHT22;58875;51.996;4.504;2023-11-19T05:13:11;12.80;80.39
71173;DHT22;58875;51.996;4.504;2023-11-19T05:15:38;12.76;80.44
71173;DHT22;58875;51.996;4.504;2023-11-19T05:18:03;12.74;80.67
71173;DHT22;58875;51.996;4.504;2023-11-19T05:20:30;12.73;80.69
71173;DHT22;58875;51.996;4.504;2023-11-19T05:22:55;12.70;80.72
71173;DHT22;58875;51.996;4.504;2023-11-19T05:25:21;12.71;80.78
71173;DHT22;58875;51.996;4.504;2023-11-19T05:27:46;12.68;80.82
71173;DHT22;58875;51.996;4.504;2023-11-19T05:30:12;12.71;80.89
71173;DHT22;58875;51.996;4.504;2023-11-19T05:32:37;12.70;80.98
71173;DHT22;58875;51.996;4.504;2023-11-19T05:35:03;12.71;80.74
71173;DHT22;58875;51.996;4.504;2023-11-19T05:37:29;12.70;80.83
71173;DHT22;58875;51.996;4.504;2023-11-19T05:39:57;12.65;80.85
71173;DHT22;58875;51.996;4.504;2023-11-19T05:42:25;12.70;80.78
71173;DHT22;58875;51.996;4.504;2023-11-19T05:44:55;12.70;80.63
71173;DHT22;58875;51.996;4.504;2023-11-19T05:47:21;12.67;80.63
71173;DHT22;58875;51.996;4.504;2023-11-19T05:49:46;12.67;80.40
71173;DHT22;58875;51.996;4.504;2023-11-19T05:52:12;12.67;80.45
71173;DHT22;58875;51.996;4.504;2023-11-19T05:54:38;12.65;80.36
71173;DHT22;58875;51.996;4.504;2023-11-19T05:57:07;12.63;80.35
71173;DHT22;58875;51.996;4.504;2023-11-19T05:59:36;12.63;80.24
71173;DHT22;58875;51.996;4.504;2023-11-19T06:02:02;12.64;80.01
71173;DHT22;58875;51.996;4.504;2023-11-19T06:04:28;12.65;79.99
71173;DHT22;58875;51.996;4.504;2023-11-19T06:06:54;12.63;79.98
71173;DHT22;58875;51.996;4.504;2023-11-19T06:09:21;12.61;79.89
71173;DHT22;58875;51.996;4.504;2023-11-19T06:11:49;12.61;79.87
71173;DHT22;58875;51.996;4.504;2023-11-19T06:14:16;12.61;79.92
71173;DHT22;58875;51.996;4.504;2023-11-19T06:16:41;12.61;79.63
71173;DHT22;58875;51.996;4.504;2023-11-19T06:19:07;12.63;79.45
71173;DHT22;58875;51.996;4.504;2023-11-19T06:21:36;12.61;79.43
71173;DHT22;58875;51.996;4.504;2023-11-19T06:24:02;12.64;79.25
71173;DHT22;58875;51.996;4.504;2023-11-19T06:26:27;12.64;79.22
71173;DHT22;58875;51.996;4.504;2023-11-19T06:28:53;12.64;79.39
71173;DHT22;58875;51.996;4.504;2023-11-19T06:31:19;12.60;79.57
71173;DHT22;58875;51.996;4.504;2023-11-19T06:33:46;12.54;79.83
71173;DHT22;58875;51.996;4.504;2023-11-19T06:36:14;12.53;80.03
71173;DHT22;58875;51.996;4.504;2023-11-19T06:38:42;12.58;80.03
71173;DHT22;58875;51.996;4.504;2023-11-19T06:41:08;12.64;79.80
71173;DHT22;58875;51.996;4.504;2023-11-19T06:43:37;12.57;79.95
71173;DHT22;58875;51.996;4.504;2023-11-19T06:46:03;12.60;79.77
71173;DHT22;58875;51.996;4.504;2023-11-19T06:48:32;12.60;79.73
71173;DHT22;58875;51.996;4.504;2023-11-19T06:50:58;12.60;79.76
71173;DHT22;58875;51.996;4.504;2023-11-19T06:53:24;12.61;79.73
71173;DHT22;58875;51.996;4.504;2023-11-19T06:55:50;12.67;79.88
71173;DHT22;58875;51.996;4.504;2023-11-19T06:58:15;12.67;79.81
71173;DHT22;58875;51.996;4.504;2023-11-19T07:00:41;12.68;79.90
71173;DHT22;58875;51.996;4.504;2023-11-19T07:03:06;12.77;80.22
71173;DHT22;58875;51.996;4.504;2023-11-19T07:05:36;12.76;80.29
71173;DHT22;58875;51.996;4.504;2023-11-19T07:08:03;12.83;80.31
71173;DHT22;58875;51.996;4.504;2023-11-19T07:10:29;12.81;80.22
71173;DHT22;58875;51.996;4.504;2023-11-19T07:12:56;12.81;80.35
71173;DHT22;58875;51.996;4.504;2023-11-19T07:15:21;12.85;80.39
71173;DHT22;58875;51.996;4.504;2023-11-19T07:17:47;12.89;80.32
71173;DHT22;58875;51.996;4.504;2023-11-19T07:20:13;12.87;80.23
71173;DHT22;58875;51.996;4.504;2023-11-19T07:22:43;12.87;80.23
71173;DHT22;58875;51.996;4.504;2023-11-19T07:25:12;12.84;80.10
71173;DHT22;58875;51.996;4.504;2023-11-19T07:27:38;12.91;79.79
71173;DHT22;58875;51.996;4.504;2023-11-19T07:30:05;12.95;79.70
71173;DHT22;58875;51.996;4.504;2023-11-19T07:32:33;12.99;79.56
71173;DHT22;58875;51.996;4.504;2023-11-19T07:34:59;12.94;79.71
71173;DHT22;58875;51.996;4.504;2023-11-19T07:37:25;12.92;79.51
71173;DHT22;58875;51.996;4.504;2023-11-19T07:39:50;12.99;79.38
71173;DHT22;58875;51.996;4.504;2023-11-19T07:42:19;12.99;79.32
71173;DHT22;58875;51.996;4.504;2023-11-19T07:44:45;12.94;79.42
71173;DHT22;58875;51.996;4.504;2023-11-19T07:47:11;12.92;79.35
71173;DHT22;58875;51.996;4.504;2023-11-19T07:49:38;12.95;79.37
71173;DHT22;58875;51.996;4.504;2023-11-19T07:52:04;12.94;79.33
71173;DHT22;58875;51.996;4.504;2023-11-19T07:54:29;12.98;79.40
71173;DHT22;58875;51.996;4.504;2023-11-19T07:56:55;12.89;79.09
71173;DHT22;58875;51.996;4.504;2023-11-19T07:59:21;12.91;78.88
71173;DHT22;58875;51.996;4.504;2023-11-19T08:01:47;12.91;78.65
71173;DHT22;58875;51.996;4.504;2023-11-19T08:04:13;12.94;78.63
71173;DHT22;58875;51.996;4.504;2023-11-19T08:06:39;13.02;78.59
71173;DHT22;58875;51.996;4.504;2023-11-19T08:09:05;13.01;78.50
71173;DHT22;58875;51.996;4.504;2023-11-19T08:11:31;13.07;78.46
71173;DHT22;58875;51.996;4.504;2023-11-19T08:13:57;13.07;78.48
71173;DHT22;58875;51.996;4.504;2023-11-19T08:16:22;13.05;78.57
71173;DHT22;58875;51.996;4.504;2023-11-19T08:18:48;13.05;78.50
71173;DHT22;58875;51.996;4.504;2023-11-19T08:21:14;13.07;78.37
71173;DHT22;58875;51.996;4.504;2023-11-19T08:23:40;13.09;78.37
71173;DHT22;58875;51.996;4.504;2023-11-19T08:26:06;13.12;78.39
71173;DHT22;58875;51.996;4.504;2023-11-19T08:28:31;13.19;78.05
71173;DHT22;58875;51.996;4.504;2023-11-19T08:30:59;13.20;78.10
71173;DHT22;58875;51.996;4.504;2023-11-19T08:33:24;13.26;77.84
71173;DHT22;58875;51.996;4.504;2023-11-19T08:35:50;13.39;77.73
71173;DHT22;58875;51.996;4.504;2023-11-19T08:38:16;13.42;77.34
71173;DHT22;58875;51.996;4.504;2023-11-19T08:40:41;13.43;77.29
71173;DHT22;58875;51.996;4.504;2023-11-19T08:43:07;13.53;77.09
71173;DHT22;58875;51.996;4.504;2023-11-19T08:45:35;13.58;76.67
71173;DHT22;58875;51.996;4.504;2023-11-19T08:48:01;13.62;76.50
71173;DHT22;58875;51.996;4.504;2023-11-19T08:50:27;13.55;76.76
71173;DHT22;58875;51.996;4.504;2023-11-19T08:52:52;13.58;76.94
71173;DHT22;58875;51.996;4.504;2023-11-19T08:55:18;13.59;77.02
71173;DHT22;58875;51.996;4.504;2023-11-19T08:57:44;13.62;77.00
71173;DHT22;58875;51.996;4.504;2023-11-19T09:00:10;13.65;77.16
71173;DHT22;58875;51.996;4.504;2023-11-19T09:02:39;13.67;76.82
71173;DHT22;58875;51.996;4.504;2023-11-19T09:05:05;13.67;76.68
71173;DHT22;58875;51.996;4.504;2023-11-19T09:07:34;13.71;76.59
71173;DHT22;58875;51.996;4.504;2023-11-19T09:10:00;13.69;76.64
71173;DHT22;58875;51.996;4.504;2023-11-19T09:12:25;13.69;76.03
71173;DHT22;58875;51.996;4.504;2023-11-19T09:14:51;13.70;76.16
71173;DHT22;58875;51.996;4.504;2023-11-19T09:17:16;13.65;76.29
71173;DHT22;58875;51.996;4.504;2023-11-19T09:19:43;13.73;76.72
71173;DHT22;58875;51.996;4.504;2023-11-19T09:22:09;13.71;76.36
71173;DHT22;58875;51.996;4.504;2023-11-19T09:24:34;13.84;76.05
71173;DHT22;58875;51.996;4.504;2023-11-19T09:27:00;13.86;76.15
71173;DHT22;58875;51.996;4.504;2023-11-19T09:29:25;13.86;75.81
71173;DHT22;58875;51.996;4.504;2023-11-19T09:31:51;13.89;75.72
71173;DHT22;58875;51.996;4.504;2023-11-19T09:34:20;13.94;75.70
71173;DHT22;58875;51.996;4.504;2023-11-19T09:36:45;13.87;75.30
71173;DHT22;58875;51.996;4.504;2023-11-19T09:39:11;13.89;75.45
71173;DHT22;58875;51.996;4.504;2023-11-19T09:41:40;13.81;75.07
71173;DHT22;58875;51.996;4.504;2023-11-19T09:44:08;13.94;74.76
71173;DHT22;58875;51.996;4.504;2023-11-19T09:46:35;14.00;74.45
71173;DHT22;58875;51.996;4.504;2023-11-19T09:49:02;14.08;73.80
71173;DHT22;58875;51.996;4.504;2023-11-19T09:51:29;14.03;73.68
71173;DHT22;58875;51.996;4.504;2023-11-19T09:53:54;14.06;74.06
71173;DHT22;58875;51.996;4.504;2023-11-19T09:56:20;14.20;73.61
71173;DHT22;58875;51.996;4.504;2023-11-19T09:58:47;14.17;73.39
71173;DHT22;58875;51.996;4.504;2023-11-19T10:01:14;14.14;73.03
71173;DHT22;58875;51.996;4.504;2023-11-19T10:03:40;14.11;73.36
71173;DHT22;58875;51.996;4.504;2023-11-19T10:06:10;14.11;73.26
71173;DHT22;58875;51.996;4.504;2023-11-19T10:08:40;14.04;73.41
71173;DHT22;58875;51.996;4.504;2023-11-19T10:11:07;14.06;73.02
71173;DHT22;58875;51.996;4.504;2023-11-19T10:13:35;14.01;72.81
71173;DHT22;58875;51.996;4.504;2023-11-19T10:16:08;14.14;72.90
71173;DHT22;58875;51.996;4.504;2023-11-19T10:18:34;14.22;73.06
71173;DHT22;58875;51.996;4.504;2023-11-19T10:21:06;14.30;72.27
71173;DHT22;58875;51.996;4.504;2023-11-19T10:26:20;14.39;71.96
71173;DHT22;58875;51.996;4.504;2023-11-19T10:28:47;14.42;71.87
71173;DHT22;58875;51.996;4.504;2023-11-19T10:31:13;14.57;71.88
71173;DHT22;58875;51.996;4.504;2023-11-19T10:33:39;14.51;71.81
71173;DHT22;58875;51.996;4.504;2023-11-19T10:36:05;14.58;71.89
71173;DHT22;58875;51.996;4.504;2023-11-19T10:38:31;14.69;71.67
71173;DHT22;58875;51.996;4.504;2023-11-19T10:40:56;14.54;71.40
71173;DHT22;58875;51.996;4.504;2023-11-19T10:43:23;14.59;71.17
71173;DHT22;58875;51.996;4.504;2023-11-19T10:45:49;14.55;71.17
71173;DHT22;58875;51.996;4.504;2023-11-19T10:48:15;14.45;71.24
71173;DHT22;58875;51.996;4.504;2023-11-19T10:50:42;14.49;71.39
71173;DHT22;58875;51.996;4.504;2023-11-19T10:53:10;14.59;71.65
71173;DHT22;58875;51.996;4.504;2023-11-19T10:55:37;14.52;72.19
71173;DHT22;58875;51.996;4.504;2023-11-19T10:58:10;14.57;72.89
71173;DHT22;58875;51.996;4.504;2023-11-19T11:00:44;14.58;73.44
71173;DHT22;58875;51.996;4.504;2023-11-19T11:03:18;14.71;73.69
71173;DHT22;58875;51.996;4.504;2023-11-19T11:05:49;14.80;74.40
71173;DHT22;58875;51.996;4.504;2023-11-19T11:08:16;14.75;74.53
71173;DHT22;58875;51.996;4.504;2023-11-19T11:10:54;14.57;75.30
71173;DHT22;58875;51.996;4.504;2023-11-19T11:13:22;14.59;75.62
71173;DHT22;58875;51.996;4.504;2023-11-19T11:15:52;14.59;75.31
71173;DHT22;58875;51.996;4.504;2023-11-19T11:18:20;14.71;75.24
71173;DHT22;58875;51.996;4.504;2023-11-19T11:20:46;14.65;75.09
71173;DHT22;58875;51.996;4.504;2023-11-19T11:26:22;14.57;75.41
71173;DHT22;58875;51.996;4.504;2023-11-19T11:29:10;14.64;75.52
71173;DHT22;58875;51.996;4.504;2023-11-19T11:37:25;14.86;74.92
71173;DHT22;58875;51.996;4.504;2023-11-19T11:39:51;14.89;74.47
71173;DHT22;58875;51.996;4.504;2023-11-19T11:50:18;14.79;73.59
71173;DHT22;58875;51.996;4.504;2023-11-19T11:55:37;14.95;72.09
71173;DHT22;58875;51.996;4.504;2023-11-19T11:58:03;15.03;71.51
71173;DHT22;58875;51.996;4.504;2023-11-19T12:00:38;15.22;70.96
71173;DHT22;58875;51.996;4.504;2023-11-19T12:03:06;15.18;69.84
71173;DHT22;58875;51.996;4.504;2023-11-19T12:05:44;14.96;70.06
71173;DHT22;58875;51.996;4.504;2023-11-19T12:08:15;14.96;70.32
71173;DHT22;58875;51.996;4.504;2023-11-19T12:10:54;14.86;70.88
71173;DHT22;58875;51.996;4.504;2023-11-19T12:13:24;14.88;70.97
71173;DHT22;58875;51.996;4.504;2023-11-19T12:18:23;14.65;72.10
71173;DHT22;58875;51.996;4.504;2023-11-19T12:20:49;14.73;72.09
71173;DHT22;58875;51.996;4.504;2023-11-19T12:23:14;14.65;72.15
71173;DHT22;58875;51.996;4.504;2023-11-19T12:25:41;14.67;72.32
71173;DHT22;58875;51.996;4.504;2023-11-19T12:28:12;14.75;72.46
71173;DHT22;58875;51.996;4.504;2023-11-19T12:30:38;14.75;72.66
71173;DHT22;58875;51.996;4.504;2023-11-19T12:33:14;14.62;72.74
71173;DHT22;58875;51.996;4.504;2023-11-19T12:35:47;14.52;73.12
71173;DHT22;58875;51.996;4.504;2023-11-19T12:38:25;14.46;73.17
71173;DHT22;58875;51.996;4.504;2023-11-19T12:41:17;14.39;73.29
71173;DHT22;58875;51.996;4.504;2023-11-19T12:43:46;14.37;73.56
71173;DHT22;58875;51.996;4.504;2023-11-19T12:46:22;14.42;73.50
71173;DHT22;58875;51.996;4.504;2023-11-19T12:48:48;14.39;73.42
71173;DHT22;58875;51.996;4.504;2023-11-19T12:51:14;14.37;73.40
71173;DHT22;58875;51.996;4.504;2023-11-19T12:53:51;14.39;73.34
71173;DHT22;58875;51.996;4.504;2023-11-19T12:56:20;14.35;72.81
71173;DHT22;58875;51.996;4.504;2023-11-19T12:58:47;14.38;72.90
71173;DHT22;58875;51.996;4.504;2023-11-19T13:01:17;14.39;72.99
71173;DHT22;58875;51.996;4.504;2023-11-19T13:03:43;14.42;73.25
71173;DHT22;58875;51.996;4.504;2023-11-19T13:06:11;14.45;73.35
71173;DHT22;58875;51.996;4.504;2023-11-19T13:08:41;14.45;73.82
71173;DHT22;58875;51.996;4.504;2023-11-19T13:11:08;14.42;74.25
71173;DHT22;58875;51.996;4.504;2023-11-19T13:13:56;14.27;75.06
71173;DHT22;58875;51.996;4.504;2023-11-19T13:16:22;14.24;75.74
71173;DHT22;58875;51.996;4.504;2023-11-19T13:18:48;14.20;76.30
71173;DHT22;58875;51.996;4.504;2023-11-19T13:21:13;14.17;76.80
71173;DHT22;58875;51.996;4.504;2023-11-19T13:23:39;14.17;77.08
71173;DHT22;58875;51.996;4.504;2023-11-19T13:26:05;14.21;76.92
71173;DHT22;58875;51.996;4.504;2023-11-19T13:28:31;14.18;76.80
71173;DHT22;58875;51.996;4.504;2023-11-19T13:30:59;14.16;76.72
71173;DHT22;58875;51.996;4.504;2023-11-19T13:33:28;14.13;76.54
71173;DHT22;58875;51.996;4.504;2023-11-19T13:35:55;14.04;76.46
71173;DHT22;58875;51.996;4.504;2023-11-19T13:38:20;13.99;76.37
71173;DHT22;58875;51.996;4.504;2023-11-19T13:40:46;13.99;76.36
71173;DHT22;58875;51.996;4.504;2023-11-19T13:43:11;13.97;75.91
71173;DHT22;58875;51.996;4.504;2023-11-19T13:45:37;14.00;75.57
71173;DHT22;58875;51.996;4.504;2023-11-19T13:48:03;13.99;75.32
71173;DHT22;58875;51.996;4.504;2023-11-19T13:50:28;13.94;75.03
71173;DHT22;58875;51.996;4.504;2023-11-19T13:52:54;13.93;75.04
71173;DHT22;58875;51.996;4.504;2023-11-19T13:55:20;13.86;74.74
71173;DHT22;58875;51.996;4.504;2023-11-19T13:57:47;13.89;74.71
71173;DHT22;58875;51.996;4.504;2023-11-19T14:00:14;13.90;74.78
71173;DHT22;58875;51.996;4.504;2023-11-19T14:02:46;13.96;74.87
71173;DHT22;58875;51.996;4.504;2023-11-19T14:05:14;13.97;74.82
71173;DHT22;58875;51.996;4.504;2023-11-19T14:07:43;13.89;74.77
71173;DHT22;58875;51.996;4.504;2023-11-19T14:10:09;13.94;74.92
71173;DHT22;58875;51.996;4.504;2023-11-19T14:12:39;13.94;75.05
71173;DHT22;58875;51.996;4.504;2023-11-19T14:15:09;13.89;75.36
71173;DHT22;58875;51.996;4.504;2023-11-19T14:17:35;13.87;75.64
71173;DHT22;58875;51.996;4.504;2023-11-19T14:20:02;13.84;75.96
71173;DHT22;58875;51.996;4.504;2023-11-19T14:22:41;13.87;76.03
71173;DHT22;58875;51.996;4.504;2023-11-19T14:25:09;13.86;75.64
71173;DHT22;58875;51.996;4.504;2023-11-19T14:27:38;13.91;75.44
71173;DHT22;58875;51.996;4.504;2023-11-19T14:30:06;13.91;74.94
71173;DHT22;58875;51.996;4.504;2023-11-19T14:32:32;13.97;74.69
71173;DHT22;58875;51.996;4.504;2023-11-19T14:34:57;14.00;74.26
71173;DHT22;58875;51.996;4.504;2023-11-19T14:37:23;13.99;73.80
71173;DHT22;58875;51.996;4.504;2023-11-19T14:39:48;14.07;73.49
71173;DHT22;58875;51.996;4.504;2023-11-19T14:42:16;14.00;73.19
71173;DHT22;58875;51.996;4.504;2023-11-19T14:44:42;14.07;73.12
71173;DHT22;58875;51.996;4.504;2023-11-19T14:47:08;14.06;73.31
71173;DHT22;58875;51.996;4.504;2023-11-19T14:49:35;14.10;73.59
71173;DHT22;58875;51.996;4.504;2023-11-19T14:52:03;14.06;73.84
71173;DHT22;58875;51.996;4.504;2023-11-19T14:54:28;14.10;74.12
71173;DHT22;58875;51.996;4.504;2023-11-19T14:56:54;14.10;74.35
71173;DHT22;58875;51.996;4.504;2023-11-19T14:59:19;14.01;74.96
71173;DHT22;58875;51.996;4.504;2023-11-19T15:01:45;14.01;75.34
71173;DHT22;58875;51.996;4.504;2023-11-19T15:04:11;14.00;75.79
71173;DHT22;58875;51.996;4.504;2023-11-19T15:06:37;13.96;76.26
71173;DHT22;58875;51.996;4.504;2023-11-19T15:09:04;13.91;76.51
71173;DHT22;58875;51.996;4.504;2023-11-19T15:11:29;13.86;76.86
71173;DHT22;58875;51.996;4.504;2023-11-19T15:13:55;13.81;77.29
71173;DHT22;58875;51.996;4.504;2023-11-19T15:16:21;13.79;77.27
71173;DHT22;58875;51.996;4.504;2023-11-19T15:18:59;13.67;77.70
71173;DHT22;58875;51.996;4.504;2023-11-19T15:21:29;13.66;77.61
71173;DHT22;58875;51.996;4.504;2023-11-19T15:23:55;13.65;77.85
71173;DHT22;58875;51.996;4.504;2023-11-19T15:26:21;13.63;77.80
71173;DHT22;58875;51.996;4.504;2023-11-19T15:28:47;13.63;77.57
71173;DHT22;58875;51.996;4.504;2023-11-19T15:31:13;13.63;77.47
71173;DHT22;58875;51.996;4.504;2023-11-19T15:33:42;13.67;77.54
71173;DHT22;58875;51.996;4.504;2023-11-19T15:36:08;13.60;77.70
71173;DHT22;58875;51.996;4.504;2023-11-19T15:38:35;13.59;77.77
71173;DHT22;58875;51.996;4.504;2023-11-19T15:41:00;13.55;77.79
71173;DHT22;58875;51.996;4.504;2023-11-19T15:43:27;13.49;78.07
71173;DHT22;58875;51.996;4.504;2023-11-19T15:45:54;13.49;78.37
71173;DHT22;58875;51.996;4.504;2023-11-19T15:48:20;13.46;78.79
71173;DHT22;58875;51.996;4.504;2023-11-19T15:50:48;13.42;79.40
71173;DHT22;58875;51.996;4.504;2023-11-19T15:53:14;13.38;79.72
71173;DHT22;58875;51.996;4.504;2023-11-19T15:55:39;13.25;80.10